Terminal Aerodrome Forecast
Issued by NWS

Home | Current Version | Previous Version | Text Only | Print | Product List | Glossary On
Versions: 1 2 3 4 5 6 7 8 9 10 11 12 13 14 15 16
000
FTUS43 KAPX 161126
TAFPLN
TAF
KPLN 161126Z 1612/1712 00000KT P6SM SCT001 BKN017
     FM161400 11006KT P6SM SCT050
     FM162000 10008KT P6SM BKN050
     FM170000 10007KT P6SM SCT050 BKN150=

USA.gov is the U.S. government's official web portal to all federal, state and local government web resources and services.